sensor_id;sensor_type;location;lat;lon;timestamp;temperature;humidity
40828;DHT22;26549;50.918;5.338;2024-02-26T00:00:36;8.80;99.90
40828;DHT22;26549;50.918;5.338;2024-02-26T00:03:01;8.80;99.90
40828;DHT22;26549;50.918;5.338;2024-02-26T00:05:27;8.70;99.90
40828;DHT22;26549;50.918;5.338;2024-02-26T00:07:53;8.70;99.90
40828;DHT22;26549;50.918;5.338;2024-02-26T00:10:19;8.60;99.90
40828;DHT22;26549;50.918;5.338;2024-02-26T00:12:44;8.60;99.90
40828;DHT22;26549;50.918;5.338;2024-02-26T00:15:10;8.60;99.90
40828;DHT22;26549;50.918;5.338;2024-02-26T00:17:36;8.60;99.90
40828;DHT22;26549;50.918;5.338;2024-02-26T00:20:03;8.50;99.90
40828;DHT22;26549;50.918;5.338;2024-02-26T00:22:35;8.50;99.90
40828;DHT22;26549;50.918;5.338;2024-02-26T00:25:01;8.50;99.90
40828;DHT22;26549;50.918;5.338;2024-02-26T00:27:27;8.40;99.90
40828;DHT22;26549;50.918;5.338;2024-02-26T00:29:52;8.50;99.90
40828;DHT22;26549;50.918;5.338;2024-02-26T00:32:18;8.50;99.90
40828;DHT22;26549;50.918;5.338;2024-02-26T00:34:44;8.50;99.90
40828;DHT22;26549;50.918;5.338;2024-02-26T00:37:11;8.50;99.90
40828;DHT22;26549;50.918;5.338;2024-02-26T00:39:36;8.50;99.90
40828;DHT22;26549;50.918;5.338;2024-02-26T00:42:02;8.50;99.90
40828;DHT22;26549;50.918;5.338;2024-02-26T00:44:28;8.40;99.90
40828;DHT22;26549;50.918;5.338;2024-02-26T00:46:54;8.40;99.90
40828;DHT22;26549;50.918;5.338;2024-02-26T00:49:19;8.30;99.90
40828;DHT22;26549;50.918;5.338;2024-02-26T00:51:45;8.30;99.90
40828;DHT22;26549;50.918;5.338;2024-02-26T00:54:11;8.20;99.90
40828;DHT22;26549;50.918;5.338;2024-02-26T00:56:37;8.30;99.90
40828;DHT22;26549;50.918;5.338;2024-02-26T00:59:02;8.40;99.90
40828;DHT22;26549;50.918;5.338;2024-02-26T01:01:28;8.20;99.90
40828;DHT22;26549;50.918;5.338;2024-02-26T01:03:54;8.20;99.90
40828;DHT22;26549;50.918;5.338;2024-02-26T01:06:19;8.20;99.90
40828;DHT22;26549;50.918;5.338;2024-02-26T01:08:45;8.20;99.90
40828;DHT22;26549;50.918;5.338;2024-02-26T01:11:11;8.20;99.90
40828;DHT22;26549;50.918;5.338;2024-02-26T01:13:37;8.20;99.90
40828;DHT22;26549;50.918;5.338;2024-02-26T01:16:03;8.20;99.90
40828;DHT22;26549;50.918;5.338;2024-02-26T01:18:28;8.20;99.90
40828;DHT22;26549;50.918;5.338;2024-02-26T01:20:54;8.20;99.90
40828;DHT22;26549;50.918;5.338;2024-02-26T01:23:20;8.20;99.90
40828;DHT22;26549;50.918;5.338;2024-02-26T01:25:46;8.30;99.90
40828;DHT22;26549;50.918;5.338;2024-02-26T01:28:12;8.20;99.90
40828;DHT22;26549;50.918;5.338;2024-02-26T01:30:37;8.20;99.90
40828;DHT22;26549;50.918;5.338;2024-02-26T01:33:03;8.20;99.90
40828;DHT22;26549;50.918;5.338;2024-02-26T01:35:29;8.20;99.90
40828;DHT22;26549;50.918;5.338;2024-02-26T01:37:55;8.10;99.90
40828;DHT22;26549;50.918;5.338;2024-02-26T01:40:21;8.10;99.90
40828;DHT22;26549;50.918;5.338;2024-02-26T01:42:47;8.20;99.90
40828;DHT22;26549;50.918;5.338;2024-02-26T01:45:17;8.20;99.90
40828;DHT22;26549;50.918;5.338;2024-02-26T01:47:53;8.20;99.90
40828;DHT22;26549;50.918;5.338;2024-02-26T01:50:20;8.20;99.90
40828;DHT22;26549;50.918;5.338;2024-02-26T01:52:49;8.20;99.90
40828;DHT22;26549;50.918;5.338;2024-02-26T01:55:15;8.10;99.90
40828;DHT22;26549;50.918;5.338;2024-02-26T01:57:44;8.10;99.90
40828;DHT22;26549;50.918;5.338;2024-02-26T02:00:10;8.10;99.90
40828;DHT22;26549;50.918;5.338;2024-02-26T02:02:37;8.10;99.90
40828;DHT22;26549;50.918;5.338;2024-02-26T02:05:05;8.10;99.90
40828;DHT22;26549;50.918;5.338;2024-02-26T02:07:32;8.10;99.90
40828;DHT22;26549;50.918;5.338;2024-02-26T02:09:58;8.10;99.90
40828;DHT22;26549;50.918;5.338;2024-02-26T02:12:24;8.10;99.90
40828;DHT22;26549;50.918;5.338;2024-02-26T02:14:50;8.10;99.90
40828;DHT22;26549;50.918;5.338;2024-02-26T02:17:16;8.00;99.90
40828;DHT22;26549;50.918;5.338;2024-02-26T02:19:43;8.10;99.90
40828;DHT22;26549;50.918;5.338;2024-02-26T02:22:08;8.00;99.90
40828;DHT22;26549;50.918;5.338;2024-02-26T02:24:34;8.00;99.90
40828;DHT22;26549;50.918;5.338;2024-02-26T02:27:00;8.00;99.90
40828;DHT22;26549;50.918;5.338;2024-02-26T02:29:26;8.10;99.90
40828;DHT22;26549;50.918;5.338;2024-02-26T02:31:53;8.10;99.90
40828;DHT22;26549;50.918;5.338;2024-02-26T02:34:21;8.10;99.90
40828;DHT22;26549;50.918;5.338;2024-02-26T02:36:54;8.00;99.90
40828;DHT22;26549;50.918;5.338;2024-02-26T02:39:21;8.00;99.90
40828;DHT22;26549;50.918;5.338;2024-02-26T02:41:47;7.90;99.90
40828;DHT22;26549;50.918;5.338;2024-02-26T02:44:13;7.90;99.90
40828;DHT22;26549;50.918;5.338;2024-02-26T02:46:39;7.90;99.90
40828;DHT22;26549;50.918;5.338;2024-02-26T02:49:09;7.90;99.90
40828;DHT22;26549;50.918;5.338;2024-02-26T02:51:36;7.90;99.90
40828;DHT22;26549;50.918;5.338;2024-02-26T02:54:02;7.80;99.90
40828;DHT22;26549;50.918;5.338;2024-02-26T02:56:27;7.80;99.90
40828;DHT22;26549;50.918;5.338;2024-02-26T02:58:53;7.90;99.90
40828;DHT22;26549;50.918;5.338;2024-02-26T03:01:19;7.80;99.90
40828;DHT22;26549;50.918;5.338;2024-02-26T03:03:45;7.60;99.90
40828;DHT22;26549;50.918;5.338;2024-02-26T03:06:10;7.70;99.90
40828;DHT22;26549;50.918;5.338;2024-02-26T03:08:36;7.80;99.90
40828;DHT22;26549;50.918;5.338;2024-02-26T03:11:04;7.70;99.90
40828;DHT22;26549;50.918;5.338;2024-02-26T03:13:30;7.70;99.90
40828;DHT22;26549;50.918;5.338;2024-02-26T03:15:55;7.70;99.90
40828;DHT22;26549;50.918;5.338;2024-02-26T03:18:21;7.70;99.90
40828;DHT22;26549;50.918;5.338;2024-02-26T03:20:47;7.80;99.90
40828;DHT22;26549;50.918;5.338;2024-02-26T03:23:13;7.70;99.90
40828;DHT22;26549;50.918;5.338;2024-02-26T03:25:44;7.80;99.90
40828;DHT22;26549;50.918;5.338;2024-02-26T03:28:11;7.70;99.90
40828;DHT22;26549;50.918;5.338;2024-02-26T03:30:38;7.80;99.90
40828;DHT22;26549;50.918;5.338;2024-02-26T03:33:04;7.70;99.90
40828;DHT22;26549;50.918;5.338;2024-02-26T03:35:29;7.70;99.90
40828;DHT22;26549;50.918;5.338;2024-02-26T03:37:56;7.70;99.90
40828;DHT22;26549;50.918;5.338;2024-02-26T03:40:22;7.80;99.90
40828;DHT22;26549;50.918;5.338;2024-02-26T03:42:47;7.80;99.90
40828;DHT22;26549;50.918;5.338;2024-02-26T03:45:14;7.70;99.90
40828;DHT22;26549;50.918;5.338;2024-02-26T03:47:40;7.70;99.90
40828;DHT22;26549;50.918;5.338;2024-02-26T03:50:06;7.70;99.90
40828;DHT22;26549;50.918;5.338;2024-02-26T03:52:33;7.70;99.90
40828;DHT22;26549;50.918;5.338;2024-02-26T03:54:58;7.80;99.90
40828;DHT22;26549;50.918;5.338;2024-02-26T03:57:24;7.70;99.90
40828;DHT22;26549;50.918;5.338;2024-02-26T03:59:50;7.80;99.90
40828;DHT22;26549;50.918;5.338;2024-02-26T04:02:17;7.80;99.90
40828;DHT22;26549;50.918;5.338;2024-02-26T04:04:46;7.80;99.90
40828;DHT22;26549;50.918;5.338;2024-02-26T04:07:11;7.80;99.90
40828;DHT22;26549;50.918;5.338;2024-02-26T04:09:38;7.70;99.90
40828;DHT22;26549;50.918;5.338;2024-02-26T04:12:04;7.70;99.90
40828;DHT22;26549;50.918;5.338;2024-02-26T04:14:30;7.70;99.90
40828;DHT22;26549;50.918;5.338;2024-02-26T04:16:56;7.70;99.90
40828;DHT22;26549;50.918;5.338;2024-02-26T04:19:21;7.70;99.90
40828;DHT22;26549;50.918;5.338;2024-02-26T04:21:47;7.60;99.90
40828;DHT22;26549;50.918;5.338;2024-02-26T04:24:13;7.50;99.90
40828;DHT22;26549;50.918;5.338;2024-02-26T04:26:39;7.60;99.90
40828;DHT22;26549;50.918;5.338;2024-02-26T04:29:04;7.70;99.90
40828;DHT22;26549;50.918;5.338;2024-02-26T04:31:30;7.70;99.90
40828;DHT22;26549;50.918;5.338;2024-02-26T04:33:58;7.80;99.90
40828;DHT22;26549;50.918;5.338;2024-02-26T04:36:24;7.80;99.90
40828;DHT22;26549;50.918;5.338;2024-02-26T04:38:51;7.70;99.90
40828;DHT22;26549;50.918;5.338;2024-02-26T04:41:17;7.80;99.90
40828;DHT22;26549;50.918;5.338;2024-02-26T04:43:43;7.90;99.90
40828;DHT22;26549;50.918;5.338;2024-02-26T04:46:09;7.80;99.90
40828;DHT22;26549;50.918;5.338;2024-02-26T04:48:38;7.70;99.90
40828;DHT22;26549;50.918;5.338;2024-02-26T04:51:07;7.70;99.90
40828;DHT22;26549;50.918;5.338;2024-02-26T04:53:33;7.70;99.90
40828;DHT22;26549;50.918;5.338;2024-02-26T04:55:59;7.70;99.90
40828;DHT22;26549;50.918;5.338;2024-02-26T04:58:24;7.80;99.90
40828;DHT22;26549;50.918;5.338;2024-02-26T05:00:51;7.80;99.90
40828;DHT22;26549;50.918;5.338;2024-02-26T05:03:17;7.90;99.90
40828;DHT22;26549;50.918;5.338;2024-02-26T05:05:46;7.70;99.90
40828;DHT22;26549;50.918;5.338;2024-02-26T05:08:11;7.70;99.90
40828;DHT22;26549;50.918;5.338;2024-02-26T05:10:38;7.80;99.90
40828;DHT22;26549;50.918;5.338;2024-02-26T05:13:05;7.70;99.90
40828;DHT22;26549;50.918;5.338;2024-02-26T05:15:31;7.70;99.90
40828;DHT22;26549;50.918;5.338;2024-02-26T05:17:58;7.70;99.90
40828;DHT22;26549;50.918;5.338;2024-02-26T05:20:24;7.70;99.90
40828;DHT22;26549;50.918;5.338;2024-02-26T05:22:50;7.60;99.90
40828;DHT22;26549;50.918;5.338;2024-02-26T05:25:16;7.80;99.90
40828;DHT22;26549;50.918;5.338;2024-02-26T05:27:43;7.70;99.90
40828;DHT22;26549;50.918;5.338;2024-02-26T05:30:10;8.00;99.90
40828;DHT22;26549;50.918;5.338;2024-02-26T05:32:36;7.80;99.90
40828;DHT22;26549;50.918;5.338;2024-02-26T05:35:03;7.60;99.90
40828;DHT22;26549;50.918;5.338;2024-02-26T05:37:29;7.60;99.90
40828;DHT22;26549;50.918;5.338;2024-02-26T05:39:55;7.70;99.90
40828;DHT22;26549;50.918;5.338;2024-02-26T05:42:21;7.60;99.90
40828;DHT22;26549;50.918;5.338;2024-02-26T05:44:48;7.50;99.90
40828;DHT22;26549;50.918;5.338;2024-02-26T05:47:13;7.60;99.90
40828;DHT22;26549;50.918;5.338;2024-02-26T05:49:40;7.70;99.90
40828;DHT22;26549;50.918;5.338;2024-02-26T05:52:06;7.70;99.90
40828;DHT22;26549;50.918;5.338;2024-02-26T05:54:32;7.70;99.90
40828;DHT22;26549;50.918;5.338;2024-02-26T05:56:58;7.70;99.90
40828;DHT22;26549;50.918;5.338;2024-02-26T05:59:23;7.70;99.90
40828;DHT22;26549;50.918;5.338;2024-02-26T06:01:49;7.70;99.90
40828;DHT22;26549;50.918;5.338;2024-02-26T06:04:15;7.70;99.90
40828;DHT22;26549;50.918;5.338;2024-02-26T06:06:43;7.70;99.90
40828;DHT22;26549;50.918;5.338;2024-02-26T06:09:09;7.50;99.90
40828;DHT22;26549;50.918;5.338;2024-02-26T06:11:36;7.50;99.90
40828;DHT22;26549;50.918;5.338;2024-02-26T06:14:02;7.60;99.90
40828;DHT22;26549;50.918;5.338;2024-02-26T06:16:28;7.60;99.90
40828;DHT22;26549;50.918;5.338;2024-02-26T06:18:54;7.60;99.90
40828;DHT22;26549;50.918;5.338;2024-02-26T06:21:19;7.50;99.90
40828;DHT22;26549;50.918;5.338;2024-02-26T06:23:45;7.50;99.90
40828;DHT22;26549;50.918;5.338;2024-02-26T06:26:11;7.40;99.90
40828;DHT22;26549;50.918;5.338;2024-02-26T06:28:36;7.40;99.90
40828;DHT22;26549;50.918;5.338;2024-02-26T06:31:06;7.40;99.90
40828;DHT22;26549;50.918;5.338;2024-02-26T06:33:32;7.40;99.90
40828;DHT22;26549;50.918;5.338;2024-02-26T06:35:58;7.50;99.90
40828;DHT22;26549;50.918;5.338;2024-02-26T06:38:24;7.50;99.90
40828;DHT22;26549;50.918;5.338;2024-02-26T06:40:50;7.50;99.90
40828;DHT22;26549;50.918;5.338;2024-02-26T06:43:15;7.50;99.90
40828;DHT22;26549;50.918;5.338;2024-02-26T06:45:41;7.50;99.90
40828;DHT22;26549;50.918;5.338;2024-02-26T06:48:07;7.40;99.90
40828;DHT22;26549;50.918;5.338;2024-02-26T06:50:33;7.30;99.90
40828;DHT22;26549;50.918;5.338;2024-02-26T06:52:58;7.40;99.90
40828;DHT22;26549;50.918;5.338;2024-02-26T06:55:24;7.40;99.90
40828;DHT22;26549;50.918;5.338;2024-02-26T06:57:50;7.50;99.90
40828;DHT22;26549;50.918;5.338;2024-02-26T07:00:16;7.40;99.90
40828;DHT22;26549;50.918;5.338;2024-02-26T07:02:44;7.50;99.90
40828;DHT22;26549;50.918;5.338;2024-02-26T07:05:10;7.50;99.90
40828;DHT22;26549;50.918;5.338;2024-02-26T07:07:37;7.50;99.90
40828;DHT22;26549;50.918;5.338;2024-02-26T07:10:03;7.40;99.90
40828;DHT22;26549;50.918;5.338;2024-02-26T07:12:32;7.40;99.90
40828;DHT22;26549;50.918;5.338;2024-02-26T07:14:58;7.50;99.90
40828;DHT22;26549;50.918;5.338;2024-02-26T07:17:23;7.60;99.90
40828;DHT22;26549;50.918;5.338;2024-02-26T07:19:49;7.50;99.90
40828;DHT22;26549;50.918;5.338;2024-02-26T07:22:15;7.40;99.90
40828;DHT22;26549;50.918;5.338;2024-02-26T07:24:41;7.30;99.90
40828;DHT22;26549;50.918;5.338;2024-02-26T07:27:08;7.30;99.90
40828;DHT22;26549;50.918;5.338;2024-02-26T07:29:33;7.30;99.90
40828;DHT22;26549;50.918;5.338;2024-02-26T07:31:59;7.40;99.90
40828;DHT22;26549;50.918;5.338;2024-02-26T07:34:26;7.40;99.90
40828;DHT22;26549;50.918;5.338;2024-02-26T07:36:56;7.40;99.90
40828;DHT22;26549;50.918;5.338;2024-02-26T07:39:24;7.50;99.90
40828;DHT22;26549;50.918;5.338;2024-02-26T07:41:49;7.40;99.90
40828;DHT22;26549;50.918;5.338;2024-02-26T07:44:18;7.40;99.90
40828;DHT22;26549;50.918;5.338;2024-02-26T07:46:45;7.40;99.90
40828;DHT22;26549;50.918;5.338;2024-02-26T07:49:11;7.40;99.90
40828;DHT22;26549;50.918;5.338;2024-02-26T07:51:42;7.40;99.90
40828;DHT22;26549;50.918;5.338;2024-02-26T07:54:08;7.60;99.90
40828;DHT22;26549;50.918;5.338;2024-02-26T07:56:34;7.40;99.90
40828;DHT22;26549;50.918;5.338;2024-02-26T07:59:00;7.40;99.90
40828;DHT22;26549;50.918;5.338;2024-02-26T08:01:27;7.40;99.90
40828;DHT22;26549;50.918;5.338;2024-02-26T08:03:54;7.50;99.90
40828;DHT22;26549;50.918;5.338;2024-02-26T08:06:23;7.50;99.90
40828;DHT22;26549;50.918;5.338;2024-02-26T08:08:49;7.50;99.90
40828;DHT22;26549;50.918;5.338;2024-02-26T08:11:16;7.50;99.90
40828;DHT22;26549;50.918;5.338;2024-02-26T08:13:42;7.50;99.90
40828;DHT22;26549;50.918;5.338;2024-02-26T08:16:11;7.50;99.90
40828;DHT22;26549;50.918;5.338;2024-02-26T08:18:39;7.50;99.90
40828;DHT22;26549;50.918;5.338;2024-02-26T08:21:06;7.50;99.90
40828;DHT22;26549;50.918;5.338;2024-02-26T08:23:32;7.30;99.90
40828;DHT22;26549;50.918;5.338;2024-02-26T08:25:59;7.30;99.90
40828;DHT22;26549;50.918;5.338;2024-02-26T08:28:25;7.40;99.90
40828;DHT22;26549;50.918;5.338;2024-02-26T08:30:50;7.40;99.90
40828;DHT22;26549;50.918;5.338;2024-02-26T08:33:16;7.50;99.90
40828;DHT22;26549;50.918;5.338;2024-02-26T08:35:43;7.40;99.90
40828;DHT22;26549;50.918;5.338;2024-02-26T08:38:10;7.50;99.90
40828;DHT22;26549;50.918;5.338;2024-02-26T08:40:36;7.60;99.90
40828;DHT22;26549;50.918;5.338;2024-02-26T08:43:02;7.50;99.90
40828;DHT22;26549;50.918;5.338;2024-02-26T08:45:29;7.60;99.90
40828;DHT22;26549;50.918;5.338;2024-02-26T08:47:56;7.50;99.90
40828;DHT22;26549;50.918;5.338;2024-02-26T08:50:24;7.60;99.90
40828;DHT22;26549;50.918;5.338;2024-02-26T08:52:50;7.50;99.90
40828;DHT22;26549;50.918;5.338;2024-02-26T08:55:18;7.60;99.90
40828;DHT22;26549;50.918;5.338;2024-02-26T08:57:44;7.60;99.90
40828;DHT22;26549;50.918;5.338;2024-02-26T09:00:13;7.70;99.90
40828;DHT22;26549;50.918;5.338;2024-02-26T09:02:43;7.70;99.90
40828;DHT22;26549;50.918;5.338;2024-02-26T09:05:10;7.60;99.90
40828;DHT22;26549;50.918;5.338;2024-02-26T09:07:36;7.60;99.90
40828;DHT22;26549;50.918;5.338;2024-02-26T09:10:03;7.60;99.90
40828;DHT22;26549;50.918;5.338;2024-02-26T09:12:29;7.50;99.90
40828;DHT22;26549;50.918;5.338;2024-02-26T09:14:55;7.60;99.90
40828;DHT22;26549;50.918;5.338;2024-02-26T09:17:26;7.70;99.90
40828;DHT22;26549;50.918;5.338;2024-02-26T09:19:52;7.70;99.90
40828;DHT22;26549;50.918;5.338;2024-02-26T09:22:24;7.70;99.90
40828;DHT22;26549;50.918;5.338;2024-02-26T09:24:51;7.80;99.90
40828;DHT22;26549;50.918;5.338;2024-02-26T09:27:18;7.70;99.90
40828;DHT22;26549;50.918;5.338;2024-02-26T09:29:44;7.70;99.90
40828;DHT22;26549;50.918;5.338;2024-02-26T09:32:10;7.70;99.90
40828;DHT22;26549;50.918;5.338;2024-02-26T09:34:36;7.80;99.90
40828;DHT22;26549;50.918;5.338;2024-02-26T09:37:03;8.10;99.90
40828;DHT22;26549;50.918;5.338;2024-02-26T09:39:29;7.60;99.90
40828;DHT22;26549;50.918;5.338;2024-02-26T09:41:55;7.60;99.90
40828;DHT22;26549;50.918;5.338;2024-02-26T09:44:22;7.50;99.90
40828;DHT22;26549;50.918;5.338;2024-02-26T09:46:49;7.50;99.90
40828;DHT22;26549;50.918;5.338;2024-02-26T09:49:20;7.60;99.90
40828;DHT22;26549;50.918;5.338;2024-02-26T09:51:49;7.60;99.90
40828;DHT22;26549;50.918;5.338;2024-02-26T09:54:15;7.80;99.90
40828;DHT22;26549;50.918;5.338;2024-02-26T09:56:41;7.70;99.90
40828;DHT22;26549;50.918;5.338;2024-02-26T09:59:11;7.60;99.90
40828;DHT22;26549;50.918;5.338;2024-02-26T10:01:42;7.60;99.90
40828;DHT22;26549;50.918;5.338;2024-02-26T10:04:10;7.70;99.90
40828;DHT22;26549;50.918;5.338;2024-02-26T10:06:37;7.70;99.90
40828;DHT22;26549;50.918;5.338;2024-02-26T10:09:03;7.80;99.90
40828;DHT22;26549;50.918;5.338;2024-02-26T10:11:33;7.80;99.90
40828;DHT22;26549;50.918;5.338;2024-02-26T10:13:59;7.70;99.90
40828;DHT22;26549;50.918;5.338;2024-02-26T10:16:26;7.70;99.90
40828;DHT22;26549;50.918;5.338;2024-02-26T10:18:53;7.70;99.90
40828;DHT22;26549;50.918;5.338;2024-02-26T10:21:22;7.60;99.90
40828;DHT22;26549;50.918;5.338;2024-02-26T10:23:49;7.70;99.90
40828;DHT22;26549;50.918;5.338;2024-02-26T10:26:18;7.90;99.90
40828;DHT22;26549;50.918;5.338;2024-02-26T10:28:46;7.80;99.90
40828;DHT22;26549;50.918;5.338;2024-02-26T10:31:14;7.80;99.90
40828;DHT22;26549;50.918;5.338;2024-02-26T10:33:43;7.80;99.90
40828;DHT22;26549;50.918;5.338;2024-02-26T10:36:10;7.70;99.90
40828;DHT22;26549;50.918;5.338;2024-02-26T10:38:37;7.60;99.90
40828;DHT22;26549;50.918;5.338;2024-02-26T10:41:08;7.60;99.90
40828;DHT22;26549;50.918;5.338;2024-02-26T10:43:41;7.60;99.90
40828;DHT22;26549;50.918;5.338;2024-02-26T10:46:07;7.70;99.90
40828;DHT22;26549;50.918;5.338;2024-02-26T10:48:35;7.60;99.90
40828;DHT22;26549;50.918;5.338;2024-02-26T10:51:01;7.60;99.90
40828;DHT22;26549;50.918;5.338;2024-02-26T10:53:29;7.70;99.90
40828;DHT22;26549;50.918;5.338;2024-02-26T10:56:06;7.80;99.90
40828;DHT22;26549;50.918;5.338;2024-02-26T10:58:32;7.80;99.90
40828;DHT22;26549;50.918;5.338;2024-02-26T11:01:01;7.80;99.90
40828;DHT22;26549;50.918;5.338;2024-02-26T11:03:27;7.80;99.90
40828;DHT22;26549;50.918;5.338;2024-02-26T11:05:56;7.80;99.90
40828;DHT22;26549;50.918;5.338;2024-02-26T11:08:24;7.90;99.90
40828;DHT22;26549;50.918;5.338;2024-02-26T11:10:53;7.80;99.90
40828;DHT22;26549;50.918;5.338;2024-02-26T11:13:21;7.80;99.90
40828;DHT22;26549;50.918;5.338;2024-02-26T11:15:48;7.70;99.90
40828;DHT22;26549;50.918;5.338;2024-02-26T11:18:16;7.60;99.90
40828;DHT22;26549;50.918;5.338;2024-02-26T11:20:44;7.70;99.90
40828;DHT22;26549;50.918;5.338;2024-02-26T11:23:11;7.70;99.90
40828;DHT22;26549;50.918;5.338;2024-02-26T11:25:39;7.80;99.90
40828;DHT22;26549;50.918;5.338;2024-02-26T11:28:17;7.70;99.90
40828;DHT22;26549;50.918;5.338;2024-02-26T11:30:46;7.70;99.90
40828;DHT22;26549;50.918;5.338;2024-02-26T11:33:13;7.70;99.90
40828;DHT22;26549;50.918;5.338;2024-02-26T11:35:40;7.60;99.90
40828;DHT22;26549;50.918;5.338;2024-02-26T11:38:06;7.70;99.90
40828;DHT22;26549;50.918;5.338;2024-02-26T11:40:33;7.60;99.90
40828;DHT22;26549;50.918;5.338;2024-02-26T11:43:04;7.60;99.90
40828;DHT22;26549;50.918;5.338;2024-02-26T11:48:12;7.60;99.90
40828;DHT22;26549;50.918;5.338;2024-02-26T11:50:50;7.70;99.90
40828;DHT22;26549;50.918;5.338;2024-02-26T11:53:32;7.80;99.90
40828;DHT22;26549;50.918;5.338;2024-02-26T11:56:22;7.70;99.90
40828;DHT22;26549;50.918;5.338;2024-02-26T11:58:53;7.90;99.90
40828;DHT22;26549;50.918;5.338;2024-02-26T12:01:38;7.90;99.90
40828;DHT22;26549;50.918;5.338;2024-02-26T12:04:07;7.80;99.90
40828;DHT22;26549;50.918;5.338;2024-02-26T12:06:46;7.70;99.90
40828;DHT22;26549;50.918;5.338;2024-02-26T12:09:12;7.70;99.90
40828;DHT22;26549;50.918;5.338;2024-02-26T12:11:42;7.80;99.90
40828;DHT22;26549;50.918;5.338;2024-02-26T12:14:09;7.90;99.90
40828;DHT22;26549;50.918;5.338;2024-02-26T12:16:38;7.70;99.90
40828;DHT22;26549;50.918;5.338;2024-02-26T12:19:07;7.90;99.90
40828;DHT22;26549;50.918;5.338;2024-02-26T12:21:34;7.80;99.90
40828;DHT22;26549;50.918;5.338;2024-02-26T12:24:10;8.00;99.90
40828;DHT22;26549;50.918;5.338;2024-02-26T12:26:36;8.00;99.90
40828;DHT22;26549;50.918;5.338;2024-02-26T12:29:02;8.10;99.90
40828;DHT22;26549;50.918;5.338;2024-02-26T12:31:29;7.80;99.90
40828;DHT22;26549;50.918;5.338;2024-02-26T12:33:56;7.70;99.90
40828;DHT22;26549;50.918;5.338;2024-02-26T12:36:22;7.90;99.90
40828;DHT22;26549;50.918;5.338;2024-02-26T12:38:51;8.00;99.90
40828;DHT22;26549;50.918;5.338;2024-02-26T12:41:17;7.90;99.90
40828;DHT22;26549;50.918;5.338;2024-02-26T12:43:43;7.80;99.90
40828;DHT22;26549;50.918;5.338;2024-02-26T12:46:10;7.90;99.90
40828;DHT22;26549;50.918;5.338;2024-02-26T12:48:36;8.10;99.90
40828;DHT22;26549;50.918;5.338;2024-02-26T12:51:03;8.00;99.90
40828;DHT22;26549;50.918;5.338;2024-02-26T12:53:30;8.20;99.90
40828;DHT22;26549;50.918;5.338;2024-02-26T12:55:57;8.10;99.90
40828;DHT22;26549;50.918;5.338;2024-02-26T12:58:24;7.90;99.90
40828;DHT22;26549;50.918;5.338;2024-02-26T13:00:53;8.10;99.90
40828;DHT22;26549;50.918;5.338;2024-02-26T13:03:22;8.30;99.90
40828;DHT22;26549;50.918;5.338;2024-02-26T13:05:48;8.30;99.90
40828;DHT22;26549;50.918;5.338;2024-02-26T13:08:21;8.20;99.90
40828;DHT22;26549;50.918;5.338;2024-02-26T13:10:48;8.10;99.90
40828;DHT22;26549;50.918;5.338;2024-02-26T13:13:18;8.20;99.90
40828;DHT22;26549;50.918;5.338;2024-02-26T13:15:44;8.30;99.90
40828;DHT22;26549;50.918;5.338;2024-02-26T13:18:14;8.20;99.90
40828;DHT22;26549;50.918;5.338;2024-02-26T13:20:42;8.20;99.90
40828;DHT22;26549;50.918;5.338;2024-02-26T13:23:11;8.00;99.90
40828;DHT22;26549;50.918;5.338;2024-02-26T13:25:38;8.20;99.90
40828;DHT22;26549;50.918;5.338;2024-02-26T13:28:09;8.10;99.90
40828;DHT22;26549;50.918;5.338;2024-02-26T13:30:35;8.10;99.90
40828;DHT22;26549;50.918;5.338;2024-02-26T13:33:12;8.20;99.90
40828;DHT22;26549;50.918;5.338;2024-02-26T13:35:39;8.20;99.90
40828;DHT22;26549;50.918;5.338;2024-02-26T13:38:05;8.20;99.90
40828;DHT22;26549;50.918;5.338;2024-02-26T13:40:32;8.30;99.90
40828;DHT22;26549;50.918;5.338;2024-02-26T13:42:57;8.00;99.90
40828;DHT22;26549;50.918;5.338;2024-02-26T13:45:23;8.00;99.90
40828;DHT22;26549;50.918;5.338;2024-02-26T13:47:50;7.90;99.90
40828;DHT22;26549;50.918;5.338;2024-02-26T13:50:16;7.90;99.90
40828;DHT22;26549;50.918;5.338;2024-02-26T13:52:42;7.90;99.90
40828;DHT22;26549;50.918;5.338;2024-02-26T13:55:08;7.90;99.90
40828;DHT22;26549;50.918;5.338;2024-02-26T13:57:34;7.60;99.90
40828;DHT22;26549;50.918;5.338;2024-02-26T14:00:00;7.70;99.90
40828;DHT22;26549;50.918;5.338;2024-02-26T14:02:25;7.60;99.90
40828;DHT22;26549;50.918;5.338;2024-02-26T14:04:51;7.70;99.90
40828;DHT22;26549;50.918;5.338;2024-02-26T14:07:18;7.70;99.90
40828;DHT22;26549;50.918;5.338;2024-02-26T14:09:44;7.70;99.90
40828;DHT22;26549;50.918;5.338;2024-02-26T14:12:11;7.60;99.90
40828;DHT22;26549;50.918;5.338;2024-02-26T14:14:37;7.60;99.90
40828;DHT22;26549;50.918;5.338;2024-02-26T14:17:04;7.70;99.90
40828;DHT22;26549;50.918;5.338;2024-02-26T14:19:31;7.80;99.90
40828;DHT22;26549;50.918;5.338;2024-02-26T14:21:56;7.60;99.90
40828;DHT22;26549;50.918;5.338;2024-02-26T14:24:22;7.80;99.90
40828;DHT22;26549;50.918;5.338;2024-02-26T14:26:48;7.90;99.90
40828;DHT22;26549;50.918;5.338;2024-02-26T14:29:14;7.90;99.90
40828;DHT22;26549;50.918;5.338;2024-02-26T14:31:40;7.90;99.90
40828;DHT22;26549;50.918;5.338;2024-02-26T14:34:05;7.80;99.90
40828;DHT22;26549;50.918;5.338;2024-02-26T14:36:32;7.80;99.90
40828;DHT22;26549;50.918;5.338;2024-02-26T14:38:59;7.70;99.90
40828;DHT22;26549;50.918;5.338;2024-02-26T14:41:25;7.60;99.90
40828;DHT22;26549;50.918;5.338;2024-02-26T14:43:50;7.70;99.90
40828;DHT22;26549;50.918;5.338;2024-02-26T14:46:16;7.80;99.90
40828;DHT22;26549;50.918;5.338;2024-02-26T14:48:42;7.90;99.90
40828;DHT22;26549;50.918;5.338;2024-02-26T14:51:08;7.90;99.90
40828;DHT22;26549;50.918;5.338;2024-02-26T14:53:34;7.80;99.90
40828;DHT22;26549;50.918;5.338;2024-02-26T14:55:59;7.70;99.90
40828;DHT22;26549;50.918;5.338;2024-02-26T14:58:25;7.70;99.90
40828;DHT22;26549;50.918;5.338;2024-02-26T15:00:51;7.70;99.90
40828;DHT22;26549;50.918;5.338;2024-02-26T15:03:17;7.80;99.90
40828;DHT22;26549;50.918;5.338;2024-02-26T15:05:43;8.00;99.90
40828;DHT22;26549;50.918;5.338;2024-02-26T15:08:10;8.10;99.90
40828;DHT22;26549;50.918;5.338;2024-02-26T15:10:41;8.10;99.90
40828;DHT22;26549;50.918;5.338;2024-02-26T15:13:16;8.20;99.90
40828;DHT22;26549;50.918;5.338;2024-02-26T15:15:43;8.00;99.90
40828;DHT22;26549;50.918;5.338;2024-02-26T15:18:09;7.90;99.90
40828;DHT22;26549;50.918;5.338;2024-02-26T15:20:37;7.90;99.90
40828;DHT22;26549;50.918;5.338;2024-02-26T15:23:07;7.90;99.90
40828;DHT22;26549;50.918;5.338;2024-02-26T15:25:36;7.70;99.90
40828;DHT22;26549;50.918;5.338;2024-02-26T15:28:02;7.60;99.90
40828;DHT22;26549;50.918;5.338;2024-02-26T15:30:28;7.50;99.90
40828;DHT22;26549;50.918;5.338;2024-02-26T15:32:55;7.80;99.90
40828;DHT22;26549;50.918;5.338;2024-02-26T15:35:21;7.70;99.90
40828;DHT22;26549;50.918;5.338;2024-02-26T15:37:47;7.80;99.90
40828;DHT22;26549;50.918;5.338;2024-02-26T15:40:13;7.80;99.90
40828;DHT22;26549;50.918;5.338;2024-02-26T15:42:39;7.90;99.90
40828;DHT22;26549;50.918;5.338;2024-02-26T15:45:05;7.90;99.90